»·PEaware :: N513L KLGB-KPOC

N513L :: KLGB-KPOC

FLIGHT INFORMATION

Flight Status: Arrived
Operator: Privately registered:
United States
More flights under this callsign
Pilot: Anonymous 45022 (45022)
Aircraft: CESSNA 172 SKYHAWK
(C172)
More flights by this aircraft type
Origin: KLGB Long Beach
United States
Destination: KPOC Brackett
United States
More flights between these airports :: More routes between these airports
Route: SLI V8 POXKU V363 POM
File this flight plan on PilotEdge
Remarks:
Altitude:
(Current/Filed)
5,000ft
Speed:
(Current/Filed)
0kts
Departed: 30-Sep-23 02:11 PM
Arrived: 30-Sep-23 02:58 PM
Distance/Time
Traveled:
25nm/0:47
Distance/Time
To Go:
Arrived

Flight Plot

Page will automatically refresh every two minutes.


Map Options




Map Legend


Flown Route
Filed Route
Departure Airport
Arrival Airport
Navaid (VOR, NDB)
Fix

Horizontal Profiles

Position Reports

Time Latitude Longitude Heading Altitude Ground
Speed
30-Sep-23 14:05 33.825435 -118.154518 128 63ft 0kts
30-Sep-23 14:06 33.825435 -118.154517 128 63ft 0kts
30-Sep-23 14:07 33.825435 -118.154517 128 63ft 0kts
30-Sep-23 14:08 33.825435 -118.154517 128 63ft 0kts
30-Sep-23 14:09 33.825435 -118.154517 128 63ft 0kts
30-Sep-23 14:10 33.824004 -118.149580 102 63ft 44kts
30-Sep-23 14:11 33.823341 -118.144902 49 63ft 1kts
30-Sep-23 14:12 33.823343 -118.144899 49 63ft 0kts
30-Sep-23 14:13 33.823345 -118.144896 48 63ft 0kts
30-Sep-23 14:14 33.823427 -118.144971 261 63ft 0kts
30-Sep-23 14:15 33.823017 -118.147853 195 63ft 0kts
30-Sep-23 14:16 33.821926 -118.148367 129 63ft 0kts
30-Sep-23 14:17 33.821926 -118.148367 129 63ft 0kts
30-Sep-23 14:18 33.821837 -118.148376 237 63ft 1kts
30-Sep-23 14:19 33.822000 -118.149965 253 63ft 0kts
30-Sep-23 14:20 33.822000 -118.149965 253 63ft 0kts
30-Sep-23 14:21 33.822000 -118.149966 254 63ft 0kts
30-Sep-23 14:22 33.822536 -118.160963 266 168ft 78kts
30-Sep-23 14:23 33.815551 -118.183461 185 1070ft 80kts
30-Sep-23 14:24 33.795985 -118.185726 221 1911ft 82kts
30-Sep-23 14:25 33.778175 -118.198839 205 2745ft 74kts
30-Sep-23 14:26 33.760001 -118.212951 197 3412ft 77kts
30-Sep-23 14:27 33.740949 -118.229681 209 3987ft 75kts
30-Sep-23 14:28 33.721958 -118.243290 208 4463ft 82kts
30-Sep-23 14:29 33.704058 -118.255752 216 4834ft 91kts
30-Sep-23 14:30 33.707463 -118.236213 49 5022ft 89kts
30-Sep-23 14:31 33.719541 -118.207988 54 5073ft 112kts
30-Sep-23 14:32 33.736129 -118.178333 35 5417ft 104kts
30-Sep-23 14:33 33.755963 -118.155522 69 5045ft 101kts
30-Sep-23 14:34 33.769898 -118.131383 40 5078ft 88kts
30-Sep-23 14:35 33.776644 -118.101884 78 4946ft 92kts
30-Sep-23 14:36 33.781658 -118.072461 68 4887ft 93kts
30-Sep-23 14:37 33.785522 -118.044260 65 5188ft 76kts
30-Sep-23 14:38 33.796308 -118.015484 67 5190ft 99kts
30-Sep-23 14:39 33.804687 -117.981304 84 5218ft 113kts
30-Sep-23 14:40 33.813763 -117.944298 65 5108ft 113kts
30-Sep-23 14:41 33.825902 -117.908437 61 4968ft 118kts
30-Sep-23 14:42 33.819605 -117.873425 106 5069ft 102kts
30-Sep-23 14:43 33.823470 -117.841290 43 5255ft 101kts
30-Sep-23 14:44 33.839512 -117.812119 60 5007ft 103kts
30-Sep-23 14:45 33.853782 -117.784841 19 5119ft 83kts
30-Sep-23 14:46 33.880406 -117.786372 349 5041ft 88kts
30-Sep-23 14:47 33.905960 -117.786382 354 5092ft 92kts
30-Sep-23 14:48 33.931786 -117.789611 344 5009ft 84kts
30-Sep-23 14:49 33.955084 -117.795009 20 4658ft 81kts
30-Sep-23 14:50 33.980940 -117.786419 17 3909ft 99kts
30-Sep-23 14:51 34.005201 -117.785536 344 3476ft 92kts
30-Sep-23 14:52 34.030009 -117.788505 352 2733ft 88kts
30-Sep-23 14:53 34.053343 -117.785666 24 1893ft 87kts
30-Sep-23 14:54 34.061243 -117.763658 74 1685ft 78kts
30-Sep-23 14:55 34.076454 -117.760706 336 1658ft 64kts
30-Sep-23 14:56 34.089191 -117.769070 311 1182ft 54kts
30-Sep-23 14:57 34.090687 -117.779627 185 1014ft 0kts

Navigation Log

Ident Type
Flight plan parsing failed, navigation log unavailable